sensor_id;sensor_type;location;lat;lon;timestamp;P1;durP1;ratioP1;P2;durP2;ratioP2
61685;SDS011;47592;45.904;8.978;2023-02-17T21:33:18;36.60;;;22.75;;
61685;SDS011;47592;45.904;8.978;2023-02-17T21:35:43;39.03;;;24.45;;
61685;SDS011;47592;45.904;8.978;2023-02-17T21:38:09;37.03;;;24.88;;
61685;SDS011;47592;45.904;8.978;2023-02-17T21:40:36;37.55;;;24.15;;
61685;SDS011;47592;45.904;8.978;2023-02-17T21:43:02;37.83;;;23.65;;
61685;SDS011;47592;45.904;8.978;2023-02-17T21:45:46;39.80;;;24.27;;
61685;SDS011;47592;45.904;8.978;2023-02-17T21:48:11;39.03;;;24.23;;
61685;SDS011;47592;45.904;8.978;2023-02-17T21:50:37;40.42;;;25.17;;
61685;SDS011;47592;45.904;8.978;2023-02-17T21:53:03;38.55;;;25.08;;
61685;SDS011;47592;45.904;8.978;2023-02-17T21:55:28;38.58;;;24.33;;
61685;SDS011;47592;45.904;8.978;2023-02-17T21:57:53;36.20;;;23.55;;
61685;SDS011;47592;45.904;8.978;2023-02-17T22:00:19;36.97;;;24.00;;
61685;SDS011;47592;45.904;8.978;2023-02-17T22:02:44;37.67;;;24.45;;
61685;SDS011;47592;45.904;8.978;2023-02-17T22:05:10;37.80;;;24.00;;
61685;SDS011;47592;45.904;8.978;2023-02-17T22:07:35;36.08;;;23.35;;
61685;SDS011;47592;45.904;8.978;2023-02-17T22:10:01;36.35;;;23.85;;
61685;SDS011;47592;45.904;8.978;2023-02-17T22:12:27;41.25;;;24.55;;
61685;SDS011;47592;45.904;8.978;2023-02-17T22:14:53;35.03;;;25.20;;
61685;SDS011;47592;45.904;8.978;2023-02-17T22:17:18;37.80;;;24.80;;
61685;SDS011;47592;45.904;8.978;2023-02-17T22:19:44;34.00;;;23.27;;
61685;SDS011;47592;45.904;8.978;2023-02-17T22:22:09;38.70;;;23.63;;
61685;SDS011;47592;45.904;8.978;2023-02-17T22:24:34;34.83;;;22.73;;
61685;SDS011;47592;45.904;8.978;2023-02-17T22:27:00;37.30;;;24.08;;
61685;SDS011;47592;45.904;8.978;2023-02-17T22:29:25;37.70;;;24.40;;
61685;SDS011;47592;45.904;8.978;2023-02-17T22:31:51;40.05;;;23.30;;
61685;SDS011;47592;45.904;8.978;2023-02-17T22:34:20;36.30;;;24.02;;
61685;SDS011;47592;45.904;8.978;2023-02-17T22:36:46;36.00;;;23.15;;
61685;SDS011;47592;45.904;8.978;2023-02-17T22:39:11;34.45;;;22.55;;
61685;SDS011;47592;45.904;8.978;2023-02-17T22:41:37;34.65;;;22.08;;
61685;SDS011;47592;45.904;8.978;2023-02-17T22:44:03;37.05;;;22.27;;
61685;SDS011;47592;45.904;8.978;2023-02-17T22:46:29;35.08;;;22.65;;
61685;SDS011;47592;45.904;8.978;2023-02-17T22:48:55;37.80;;;23.38;;
61685;SDS011;47592;45.904;8.978;2023-02-17T22:51:23;35.00;;;22.92;;
61685;SDS011;47592;45.904;8.978;2023-02-17T22:53:50;35.00;;;23.20;;
61685;SDS011;47592;45.904;8.978;2023-02-17T22:56:16;40.35;;;22.92;;
61685;SDS011;47592;45.904;8.978;2023-02-17T22:58:41;34.00;;;21.98;;
61685;SDS011;47592;45.904;8.978;2023-02-17T23:01:11;34.55;;;22.13;;
61685;SDS011;47592;45.904;8.978;2023-02-17T23:03:36;37.25;;;22.00;;
61685;SDS011;47592;45.904;8.978;2023-02-17T23:06:03;36.78;;;21.55;;
61685;SDS011;47592;45.904;8.978;2023-02-17T23:08:35;34.65;;;22.00;;
61685;SDS011;47592;45.904;8.978;2023-02-17T23:11:04;32.70;;;20.92;;
61685;SDS011;47592;45.904;8.978;2023-02-17T23:13:31;32.58;;;20.88;;
61685;SDS011;47592;45.904;8.978;2023-02-17T23:15:56;33.70;;;21.30;;
61685;SDS011;47592;45.904;8.978;2023-02-17T23:18:22;33.28;;;20.98;;
61685;SDS011;47592;45.904;8.978;2023-02-17T23:20:48;33.83;;;21.42;;
61685;SDS011;47592;45.904;8.978;2023-02-17T23:23:14;34.13;;;22.52;;
61685;SDS011;47592;45.904;8.978;2023-02-17T23:25:41;34.28;;;21.95;;
61685;SDS011;47592;45.904;8.978;2023-02-17T23:28:28;33.95;;;21.27;;
61685;SDS011;47592;45.904;8.978;2023-02-17T23:30:53;33.90;;;21.17;;
61685;SDS011;47592;45.904;8.978;2023-02-17T23:33:20;32.70;;;21.30;;
61685;SDS011;47592;45.904;8.978;2023-02-17T23:35:46;32.80;;;21.13;;
61685;SDS011;47592;45.904;8.978;2023-02-17T23:38:12;30.48;;;20.25;;
61685;SDS011;47592;45.904;8.978;2023-02-17T23:40:39;32.40;;;21.17;;
61685;SDS011;47592;45.904;8.978;2023-02-17T23:43:10;34.75;;;21.77;;
61685;SDS011;47592;45.904;8.978;2023-02-17T23:45:36;36.35;;;21.33;;
61685;SDS011;47592;45.904;8.978;2023-02-17T23:48:02;32.90;;;20.35;;
61685;SDS011;47592;45.904;8.978;2023-02-17T23:50:28;35.65;;;20.42;;
61685;SDS011;47592;45.904;8.978;2023-02-17T23:52:53;32.78;;;21.02;;
61685;SDS011;47592;45.904;8.978;2023-02-17T23:55:19;27.95;;;19.65;;
61685;SDS011;47592;45.904;8.978;2023-02-17T23:57:45;32.20;;;20.90;;
